createdAt,value
2023-04-02T00:00:57.332Z,93120.20
2023-04-02T00:03:34.799Z,93125.20
2023-04-02T00:06:02.537Z,93126.00
2023-04-02T00:08:30.007Z,93125.00
2023-04-02T00:10:57.632Z,93129.20
2023-04-02T00:13:25.344Z,93128.80
2023-04-02T00:15:52.907Z,93128.00
2023-04-02T00:18:20.677Z,93128.80
2023-04-02T00:20:48.271Z,93132.00
2023-04-02T00:23:15.963Z,93132.80
2023-04-02T00:25:45.385Z,93128.80
2023-04-02T00:28:13.045Z,93129.80
2023-04-02T00:30:40.673Z,93129.40
2023-04-02T00:33:08.145Z,93127.40
2023-04-02T00:35:35.966Z,93126.40
2023-04-02T00:38:03.779Z,93124.00
2023-04-02T00:40:31.289Z,93124.40
2023-04-02T00:42:58.870Z,93125.80
2023-04-02T00:45:28.655Z,93126.80
2023-04-02T00:47:56.259Z,93129.40
2023-04-02T00:50:23.995Z,93130.40
2023-04-02T00:52:51.540Z,93126.20
2023-04-02T00:55:19.024Z,93125.60
2023-04-02T00:57:46.886Z,93125.60
2023-04-02T01:00:15.922Z,93128.80
2023-04-02T01:02:43.535Z,93127.40
2023-04-02T01:05:13.639Z,93134.20
2023-04-02T01:07:41.122Z,93137.40
2023-04-02T01:10:09.137Z,93141.60
2023-04-02T01:12:36.949Z,93141.00
2023-04-02T01:15:04.519Z,93139.60
2023-04-02T01:17:32.654Z,93142.20
2023-04-02T01:20:01.649Z,93141.00
2023-04-02T01:22:30.954Z,93143.20
2023-04-02T01:24:58.674Z,93145.60
2023-04-02T01:27:26.438Z,93143.60
2023-04-02T01:29:55.555Z,93150.00
2023-04-02T01:32:23.071Z,93151.80
2023-04-02T01:34:50.918Z,93148.80
2023-04-02T01:37:22.223Z,93148.40
2023-04-02T01:39:49.736Z,93147.80
2023-04-02T01:42:17.231Z,93148.80
2023-04-02T01:44:44.748Z,93147.20
2023-04-02T01:47:12.261Z,93148.20
2023-04-02T01:49:40.303Z,93147.60
2023-04-02T01:52:07.835Z,93145.00
2023-04-02T01:54:37.829Z,93142.80
2023-04-02T01:57:05.349Z,93141.20
2023-04-02T01:59:33.379Z,93144.20
2023-04-02T02:02:00.928Z,93148.20
2023-04-02T02:04:28.488Z,93155.40
2023-04-02T02:06:56.951Z,93158.00
2023-04-02T02:09:24.475Z,93158.60
2023-04-02T02:11:52.078Z,93160.40
2023-04-02T02:14:19.586Z,93165.80
2023-04-02T02:16:47.092Z,93166.00
2023-04-02T02:19:14.733Z,93170.20
2023-04-02T02:21:42.203Z,93167.80
2023-04-02T02:24:09.652Z,93171.20
2023-04-02T02:26:37.360Z,93174.40
2023-04-02T02:29:04.849Z,93177.20
2023-04-02T02:31:33.202Z,93181.00
2023-04-02T02:34:01.026Z,93179.40
2023-04-02T02:36:29.409Z,93180.60
2023-04-02T02:38:56.880Z,93183.60
2023-04-02T02:41:24.825Z,93186.60
2023-04-02T02:43:52.316Z,93192.80
2023-04-02T02:46:19.872Z,93192.20
2023-04-02T02:48:47.683Z,93191.40
2023-04-02T02:51:15.623Z,93191.40
2023-04-02T02:53:43.249Z,93191.20
2023-04-02T02:56:10.890Z,93189.80
2023-04-02T02:58:38.364Z,93194.00
2023-04-02T03:01:06.161Z,93193.20
2023-04-02T03:03:34.377Z,93199.00
2023-04-02T03:06:02.180Z,93197.00
2023-04-02T03:08:29.682Z,93198.40
2023-04-02T03:10:57.154Z,93200.40
2023-04-02T03:13:24.655Z,93198.40
2023-04-02T03:15:52.220Z,93194.20
2023-04-02T03:18:19.768Z,93199.00
2023-04-02T03:20:47.241Z,93198.20
2023-04-02T03:23:14.708Z,93196.60
2023-04-02T03:25:42.208Z,93191.00
2023-04-02T03:28:09.821Z,93195.60
2023-04-02T03:30:37.587Z,93192.00
2023-04-02T03:33:05.250Z,93196.40
2023-04-02T03:35:33.154Z,93199.20
2023-04-02T03:38:00.937Z,93200.00
2023-04-02T03:40:28.494Z,93204.40
2023-04-02T03:42:56.169Z,93205.80
2023-04-02T03:45:23.861Z,93208.60
2023-04-02T03:47:51.566Z,93208.80
2023-04-02T03:50:19.323Z,93205.40
2023-04-02T03:52:46.928Z,93209.00
2023-04-02T03:55:16.032Z,93214.20
2023-04-02T03:57:43.629Z,93218.40
2023-04-02T04:00:11.298Z,93220.80
2023-04-02T04:02:38.851Z,93227.00
2023-04-02T04:05:06.861Z,93228.40
2023-04-02T04:07:34.466Z,93230.20
2023-04-02T04:10:02.021Z,93236.40
2023-04-02T04:12:29.576Z,93232.60
2023-04-02T04:14:57.084Z,93230.80
2023-04-02T04:17:24.829Z,93232.40
2023-04-02T04:19:55.041Z,93234.40
2023-04-02T04:22:30.491Z,93237.40
2023-04-02T04:24:58.091Z,93242.40
2023-04-02T04:27:25.638Z,93241.20
2023-04-02T04:29:53.586Z,93244.00
2023-04-02T04:32:21.149Z,93241.20
2023-04-02T04:34:53.509Z,93243.80
2023-04-02T04:37:21.718Z,93248.20
2023-04-02T04:39:49.305Z,93250.80
2023-04-02T04:42:16.812Z,93252.40
2023-04-02T04:44:44.319Z,93258.80
2023-04-02T04:47:11.868Z,93259.60
2023-04-02T04:49:39.356Z,93262.40
2023-04-02T04:52:07.112Z,93262.40
2023-04-02T04:54:36.371Z,93262.80
2023-04-02T04:57:04.018Z,93262.60
2023-04-02T04:59:31.729Z,93264.20
2023-04-02T05:01:59.251Z,93263.40
2023-04-02T05:04:26.818Z,93267.00
2023-04-02T05:06:54.410Z,93269.40
2023-04-02T05:09:22.552Z,93269.20
2023-04-02T05:11:50.021Z,93267.40
2023-04-02T05:14:17.649Z,93269.00
2023-04-02T05:16:45.194Z,93271.20
2023-04-02T05:19:12.660Z,93271.00
2023-04-02T05:21:40.166Z,93271.40
2023-04-02T05:24:07.824Z,93274.20
2023-04-02T05:26:35.403Z,93274.20
2023-04-02T05:29:04.519Z,93272.60
2023-04-02T05:31:32.909Z,93274.80
2023-04-02T05:34:00.923Z,93275.20
2023-04-02T05:36:29.313Z,93276.60
2023-04-02T05:38:56.857Z,93278.60
2023-04-02T05:41:24.509Z,93276.00
2023-04-02T05:43:51.986Z,93277.40
2023-04-02T05:46:19.532Z,93281.20
2023-04-02T05:48:47.138Z,93281.60
2023-04-02T05:51:14.625Z,93282.40
2023-04-02T05:53:42.162Z,93285.80
2023-04-02T05:56:09.613Z,93285.80
2023-04-02T05:58:37.497Z,93283.20
2023-04-02T06:01:05.091Z,93286.80
2023-04-02T06:03:32.848Z,93287.60
2023-04-02T06:06:00.511Z,93290.60
2023-04-02T06:08:28.007Z,93295.00
2023-04-02T06:10:55.500Z,93292.40
2023-04-02T06:13:23.079Z,93294.60
2023-04-02T06:15:50.837Z,93296.00
2023-04-02T06:18:18.378Z,93297.60
2023-04-02T06:20:46.184Z,93300.60
2023-04-02T06:23:13.702Z,93301.00
2023-04-02T06:25:41.487Z,93302.00
2023-04-02T06:28:09.083Z,93305.80
2023-04-02T06:30:36.631Z,93305.60
2023-04-02T06:33:04.422Z,93308.40
2023-04-02T06:35:32.169Z,93308.80
2023-04-02T06:37:59.773Z,93314.80
2023-04-02T06:40:27.300Z,93316.20
2023-04-02T06:42:59.716Z,93323.00
2023-04-02T06:45:27.247Z,93326.60
2023-04-02T06:47:55.061Z,93326.00
2023-04-02T06:50:23.345Z,93329.60
2023-04-02T06:52:51.028Z,93334.00
2023-04-02T06:55:18.660Z,93333.00
2023-04-02T06:57:46.566Z,93334.00
2023-04-02T07:00:14.895Z,93335.40
2023-04-02T07:02:42.494Z,93338.20
2023-04-02T07:05:10.487Z,93339.80
2023-04-02T07:07:38.168Z,93340.20
2023-04-02T07:10:07.069Z,93349.20
2023-04-02T07:12:34.618Z,93350.60
2023-04-02T07:15:02.077Z,93349.60
2023-04-02T07:17:29.653Z,93352.80
2023-04-02T07:19:57.466Z,93354.80
2023-04-02T07:22:26.883Z,93365.60
2023-04-02T07:24:54.553Z,93364.80
2023-04-02T07:27:22.224Z,93371.80
2023-04-02T07:29:49.720Z,93377.60
2023-04-02T07:32:19.499Z,93375.80
2023-04-02T07:34:49.010Z,93378.60
2023-04-02T07:37:16.551Z,93381.00
2023-04-02T07:39:44.086Z,93379.60
2023-04-02T07:42:11.676Z,93378.00
2023-04-02T07:44:39.185Z,93380.40
2023-04-02T07:47:08.567Z,93382.40
2023-04-02T07:49:36.218Z,93383.80
2023-04-02T07:52:04.143Z,93383.40
2023-04-02T07:54:31.624Z,93387.20
2023-04-02T07:56:59.256Z,93390.80
2023-04-02T07:59:26.856Z,93391.00
2023-04-02T08:01:54.547Z,93392.80
2023-04-02T08:04:22.204Z,93393.80
2023-04-02T08:06:49.774Z,93396.40
2023-04-02T08:09:17.254Z,93394.20
2023-04-02T08:11:46.717Z,93401.20
2023-04-02T08:14:14.436Z,93398.20
2023-04-02T08:16:42.840Z,93399.80
2023-04-02T08:19:10.447Z,93397.80
2023-04-02T08:21:38.111Z,93401.40
2023-04-02T08:24:05.959Z,93403.60
2023-04-02T08:26:33.556Z,93398.00
2023-04-02T08:29:01.080Z,93396.40
2023-04-02T08:31:28.674Z,93401.60
2023-04-02T08:33:57.121Z,93395.60
2023-04-02T08:36:24.858Z,93397.80
2023-04-02T08:38:52.468Z,93397.40
2023-04-02T08:41:20.331Z,93401.80
2023-04-02T08:43:48.786Z,93404.60
2023-04-02T08:46:16.459Z,93401.80
2023-04-02T08:48:44.232Z,93403.80
2023-04-02T08:51:12.144Z,93402.00
2023-04-02T08:53:40.052Z,93399.60
2023-04-02T08:56:08.606Z,93407.40
2023-04-02T08:58:36.338Z,93409.60
2023-04-02T09:01:04.337Z,93407.60
2023-04-02T09:03:32.152Z,93413.20
2023-04-02T09:05:59.947Z,93409.20
2023-04-02T09:08:27.484Z,93411.20
2023-04-02T09:10:55.335Z,93409.80
2023-04-02T09:13:22.848Z,93411.80
2023-04-02T09:15:50.610Z,93410.60
2023-04-02T09:18:18.427Z,93410.40
2023-04-02T09:20:48.078Z,93412.20
2023-04-02T09:23:15.581Z,93411.20
2023-04-02T09:25:44.737Z,93410.20
2023-04-02T09:28:14.014Z,93416.80
2023-04-02T09:30:41.543Z,93419.00
2023-04-02T09:33:09.367Z,93422.60
2023-04-02T09:35:37.068Z,93428.80
2023-04-02T09:38:06.155Z,93436.40
2023-04-02T09:40:33.706Z,93438.00
2023-04-02T09:43:01.205Z,93438.80
2023-04-02T09:45:28.724Z,93443.00
2023-04-02T09:47:56.489Z,93449.20
2023-04-02T09:50:27.452Z,93450.60
2023-04-02T09:52:55.002Z,93455.40
2023-04-02T09:55:22.543Z,93464.20
2023-04-02T09:57:50.511Z,93456.80
2023-04-02T10:00:41.580Z,93458.40
2023-04-02T10:03:05.784Z,93461.20
2023-04-02T10:05:40.432Z,93459.20
2023-04-02T10:08:09.010Z,93466.60
2023-04-02T10:10:37.225Z,93480.80
2023-04-02T10:13:05.009Z,93492.20
2023-04-02T10:15:32.580Z,93500.40
2023-04-02T10:18:00.432Z,93509.20
2023-04-02T10:20:29.302Z,93515.60
2023-04-02T10:22:58.196Z,93527.20
2023-04-02T10:25:25.851Z,93540.60
2023-04-02T10:27:53.430Z,93551.80
2023-04-02T10:30:21.189Z,93561.20
2023-04-02T10:32:48.724Z,93574.80
2023-04-02T10:35:16.476Z,93575.80
2023-04-02T10:37:44.015Z,93591.20
2023-04-02T10:40:11.830Z,93594.00
2023-04-02T10:42:39.381Z,93599.00
2023-04-02T10:45:06.896Z,93612.20
2023-04-02T10:47:34.468Z,93612.80
2023-04-02T10:50:01.964Z,93623.60
2023-04-02T10:52:29.552Z,93627.20
2023-04-02T10:54:57.274Z,93627.40
2023-04-02T10:57:24.788Z,93640.00
2023-04-02T10:59:53.213Z,93632.40
2023-04-02T11:02:20.764Z,93639.20
2023-04-02T11:04:48.829Z,93647.40
2023-04-02T11:07:17.314Z,93650.20
2023-04-02T11:09:44.926Z,93651.80
2023-04-02T11:12:12.441Z,93651.40
2023-04-02T11:14:41.102Z,93668.00
2023-04-02T11:17:08.591Z,93675.00
2023-04-02T11:19:37.736Z,93678.60
2023-04-02T11:22:06.855Z,93685.00
2023-04-02T11:24:36.830Z,93694.00
2023-04-02T11:27:04.315Z,93702.20
2023-04-02T11:29:31.890Z,93704.80
2023-04-02T11:31:59.382Z,93714.60
2023-04-02T11:34:26.843Z,93722.00
2023-04-02T11:36:54.333Z,93730.20
2023-04-02T11:39:22.198Z,93725.60
2023-04-02T11:41:49.829Z,93732.40
2023-04-02T11:44:17.348Z,93745.00
2023-04-02T11:46:45.601Z,93748.80
2023-04-02T11:49:13.330Z,93753.40
2023-04-02T11:51:40.913Z,93752.80
2023-04-02T11:54:09.260Z,93756.20
2023-04-02T11:56:36.755Z,93756.80
2023-04-02T11:59:04.295Z,93763.00
2023-04-02T12:01:31.796Z,93764.60
2023-04-02T12:03:59.385Z,93768.60
2023-04-02T12:06:27.161Z,93766.40
2023-04-02T12:08:58.086Z,93771.20
2023-04-02T12:11:25.926Z,93775.40
2023-04-02T12:13:53.715Z,93774.80
2023-04-02T12:16:21.348Z,93774.20
2023-04-02T12:18:51.230Z,93778.40
2023-04-02T12:21:18.810Z,93780.60
2023-04-02T12:23:46.305Z,93783.20
2023-04-02T12:26:14.447Z,93788.40
2023-04-02T12:28:42.650Z,93793.80
2023-04-02T12:31:10.171Z,93794.80
2023-04-02T12:33:38.022Z,93798.00
2023-04-02T12:36:05.781Z,93797.40
2023-04-02T12:38:33.420Z,93798.60
2023-04-02T12:41:01.309Z,93796.40
2023-04-02T12:43:29.114Z,93801.60
2023-04-02T12:45:56.743Z,93805.20
2023-04-02T12:48:24.293Z,93804.80
2023-04-02T12:50:52.051Z,93807.20
2023-04-02T12:53:20.584Z,93809.20
2023-04-02T12:55:48.560Z,93805.00
2023-04-02T12:58:16.077Z,93809.80
2023-04-02T13:00:43.538Z,93811.80
2023-04-02T13:03:11.239Z,93813.00
2023-04-02T13:05:40.330Z,93812.60
2023-04-02T13:08:07.797Z,93812.80
2023-04-02T13:10:35.501Z,93815.40
2023-04-02T13:13:03.637Z,93813.40
2023-04-02T13:15:32.031Z,93817.60
2023-04-02T13:17:59.629Z,93822.20
2023-04-02T13:20:27.187Z,93828.40
2023-04-02T13:22:54.667Z,93827.00
2023-04-02T13:25:22.216Z,93824.00
2023-04-02T13:27:49.926Z,93831.00
2023-04-02T13:30:17.702Z,93836.60
2023-04-02T13:32:45.944Z,93836.40
2023-04-02T13:35:13.517Z,93834.60
2023-04-02T13:37:41.093Z,93841.80
2023-04-02T13:40:09.317Z,93846.20
2023-04-02T13:42:37.120Z,93847.00
2023-04-02T13:45:05.007Z,93850.40
2023-04-02T13:47:32.546Z,93851.40
2023-04-02T13:50:00.201Z,93855.80
2023-04-02T13:52:27.700Z,93858.00
2023-04-02T13:54:55.197Z,93860.60
2023-04-02T13:57:22.880Z,93863.20
2023-04-02T13:59:50.507Z,93860.80
2023-04-02T14:02:18.279Z,93867.20
2023-04-02T14:04:48.696Z,93872.40
2023-04-02T14:07:18.246Z,93868.80
2023-04-02T14:09:47.986Z,93870.60
2023-04-02T14:12:15.478Z,93868.20
2023-04-02T14:14:42.959Z,93870.80
2023-04-02T14:17:10.847Z,93874.80
2023-04-02T14:19:38.420Z,93868.80
2023-04-02T14:22:05.962Z,93880.40
2023-04-02T14:24:33.541Z,93879.40
2023-04-02T14:27:01.433Z,93881.60
2023-04-02T14:29:29.897Z,93878.40
2023-04-02T14:31:57.433Z,93880.60
2023-04-02T14:34:24.921Z,93884.40
2023-04-02T14:36:56.353Z,93888.20
2023-04-02T14:39:23.995Z,93891.60
2023-04-02T14:41:51.536Z,93885.20
2023-04-02T14:44:18.987Z,93889.00
2023-04-02T14:46:47.807Z,93892.40
2023-04-02T14:49:15.542Z,93894.00
2023-04-02T14:51:43.488Z,93896.00
2023-04-02T14:54:11.236Z,93896.60
2023-04-02T14:56:38.819Z,93902.80
2023-04-02T14:59:06.598Z,93902.00
2023-04-02T15:01:34.100Z,93897.00
2023-04-02T15:04:02.360Z,93898.80
2023-04-02T15:06:29.930Z,93901.60
2023-04-02T15:09:08.461Z,93905.80
2023-04-02T15:11:37.497Z,93902.80
2023-04-02T15:14:04.982Z,93908.20
2023-04-02T15:16:33.417Z,93908.40
2023-04-02T15:19:01.287Z,93915.60
2023-04-02T15:21:29.630Z,93916.80
2023-04-02T15:23:57.552Z,93918.00
2023-04-02T15:26:26.392Z,93922.80
2023-04-02T15:28:53.973Z,93929.60
2023-04-02T15:31:21.537Z,93931.00
2023-04-02T15:33:49.060Z,93935.60
2023-04-02T15:36:16.578Z,93934.60
2023-04-02T15:38:44.047Z,93941.00
2023-04-02T15:41:11.539Z,93941.60
2023-04-02T15:43:39.056Z,93942.40
2023-04-02T15:46:06.639Z,93947.20
2023-04-02T15:48:34.323Z,93951.60
2023-04-02T15:51:02.095Z,93952.40
2023-04-02T15:53:31.272Z,93955.20
2023-04-02T15:55:58.760Z,93962.20
2023-04-02T15:58:26.574Z,93966.60
2023-04-02T16:00:54.085Z,93968.60
2023-04-02T16:03:23.023Z,93969.20
2023-04-02T16:05:50.819Z,93976.00
2023-04-02T16:08:18.324Z,93977.60
2023-04-02T16:10:46.251Z,93984.00
2023-04-02T16:13:13.909Z,93988.00
2023-04-02T16:15:41.431Z,93989.20
2023-04-02T16:18:08.909Z,93993.00
2023-04-02T16:20:37.019Z,93987.80
2023-04-02T16:23:04.649Z,93995.00
2023-04-02T16:25:32.126Z,93997.00
2023-04-02T16:27:59.659Z,93999.00
2023-04-02T16:30:27.142Z,94004.80
2023-04-02T16:32:54.694Z,94008.40
2023-04-02T16:35:41.908Z,94005.40
2023-04-02T16:38:09.763Z,94008.00
2023-04-02T16:40:38.245Z,94015.20
2023-04-02T16:43:06.273Z,94026.00
2023-04-02T16:45:34.036Z,94020.60
2023-04-02T16:48:01.888Z,94024.00
2023-04-02T16:50:31.390Z,94031.80
2023-04-02T16:53:01.896Z,94030.80
2023-04-02T16:55:29.411Z,94035.80
2023-04-02T16:57:56.869Z,94031.00
2023-04-02T17:00:24.630Z,94038.20
2023-04-02T17:02:52.211Z,94040.60
2023-04-02T17:05:20.363Z,94044.00
2023-04-02T17:07:48.117Z,94047.40
2023-04-02T17:10:15.926Z,94048.80
2023-04-02T17:12:43.733Z,94051.40
2023-04-02T17:15:14.197Z,94052.60
2023-04-02T17:17:52.294Z,94055.20
2023-04-02T17:20:19.829Z,94053.80
2023-04-02T17:22:47.733Z,94060.40
2023-04-02T17:25:15.529Z,94067.00
2023-04-02T17:27:43.026Z,94067.20
2023-04-02T17:30:10.565Z,94067.80
2023-04-02T17:32:38.209Z,94068.80
2023-04-02T17:35:05.990Z,94077.20
2023-04-02T17:37:33.705Z,94071.20
2023-04-02T17:40:01.414Z,94078.20
2023-04-02T17:42:29.112Z,94077.80
2023-04-02T17:44:56.792Z,94082.20
2023-04-02T17:47:25.806Z,94089.40
2023-04-02T17:49:53.382Z,94092.60
2023-04-02T17:52:21.010Z,94090.00
2023-04-02T17:54:49.325Z,94095.80
2023-04-02T17:57:16.883Z,94094.60
2023-04-02T17:59:44.520Z,94096.80
2023-04-02T18:02:12.452Z,94100.00
2023-04-02T18:04:41.683Z,94102.00
2023-04-02T18:07:09.178Z,94106.20
2023-04-02T18:09:37.294Z,94107.40
2023-04-02T18:12:04.770Z,94109.40
2023-04-02T18:14:32.331Z,94113.40
2023-04-02T18:16:59.875Z,94116.00
2023-04-02T18:19:29.384Z,94119.20
2023-04-02T18:21:58.382Z,94127.20
2023-04-02T18:24:26.095Z,94124.80
2023-04-02T18:26:53.950Z,94130.80
2023-04-02T18:29:21.835Z,94133.80
2023-04-02T18:31:51.467Z,94139.20
2023-04-02T18:34:19.711Z,94141.20
2023-04-02T18:36:47.295Z,94143.40
2023-04-02T18:39:15.717Z,94142.40
2023-04-02T18:41:43.326Z,94142.00
2023-04-02T18:44:10.901Z,94148.20
2023-04-02T18:46:39.195Z,94152.00
2023-04-02T18:49:06.844Z,94144.00
2023-04-02T18:51:34.483Z,94150.80
2023-04-02T18:54:02.681Z,94154.20
2023-04-02T18:56:30.918Z,94154.00
2023-04-02T18:58:58.781Z,94155.00
2023-04-02T19:01:26.661Z,94153.40
2023-04-02T19:03:54.563Z,94163.60
2023-04-02T19:06:22.320Z,94164.00
2023-04-02T19:08:49.872Z,94166.60
2023-04-02T19:11:17.803Z,94162.20
2023-04-02T19:13:45.702Z,94160.80
2023-04-02T19:16:13.613Z,94171.80
2023-04-02T19:18:41.454Z,94171.40
2023-04-02T19:21:15.233Z,94169.60
2023-04-02T19:23:44.992Z,94168.80
2023-04-02T19:26:12.820Z,94171.80
2023-04-02T19:28:40.812Z,94168.60
2023-04-02T19:31:09.292Z,94174.60
2023-04-02T19:33:37.001Z,94187.20
2023-04-02T19:36:04.557Z,94186.20
2023-04-02T19:38:32.399Z,94189.00
2023-04-02T19:41:00.538Z,94187.40
2023-04-02T19:43:28.349Z,94189.20
2023-04-02T19:45:56.195Z,94194.20
2023-04-02T19:48:23.692Z,94199.60
2023-04-02T19:50:51.364Z,94194.80
2023-04-02T19:53:19.368Z,94193.80
2023-04-02T19:55:47.125Z,94199.60
2023-04-02T19:58:19.595Z,94196.60
2023-04-02T20:00:47.659Z,94193.00
2023-04-02T20:03:15.378Z,94194.20
2023-04-02T20:05:42.886Z,94195.00
2023-04-02T20:08:10.443Z,94195.80
2023-04-02T20:10:38.130Z,94197.20
2023-04-02T20:13:06.004Z,94201.20
2023-04-02T20:15:33.667Z,94201.40
2023-04-02T20:18:01.516Z,94202.40
2023-04-02T20:20:29.315Z,94200.00
2023-04-02T20:22:56.837Z,94202.00
2023-04-02T20:25:24.501Z,94206.40
2023-04-02T20:27:51.958Z,94206.60
2023-04-02T20:30:19.446Z,94203.80
2023-04-02T20:32:47.062Z,94205.80
2023-04-02T20:35:14.665Z,94212.60
2023-04-02T20:37:42.151Z,94213.60
2023-04-02T20:40:10.163Z,94212.40
2023-04-02T20:42:37.679Z,94216.00
2023-04-02T20:45:06.183Z,94217.80
2023-04-02T20:47:33.720Z,94215.20
2023-04-02T20:50:01.548Z,94219.60
2023-04-02T20:52:30.382Z,94220.60
2023-04-02T20:54:58.046Z,94225.00
2023-04-02T20:57:27.628Z,94222.20
2023-04-02T20:59:55.371Z,94220.20
2023-04-02T21:02:22.915Z,94221.00
2023-04-02T21:04:50.696Z,94223.60
2023-04-02T21:07:18.252Z,94221.20
2023-04-02T21:09:45.952Z,94222.00
2023-04-02T21:12:13.388Z,94219.00
2023-04-02T21:14:41.019Z,94217.00
2023-04-02T21:17:08.799Z,94218.00
2023-04-02T21:19:36.494Z,94218.40
2023-04-02T21:22:04.233Z,94217.20
2023-04-02T21:24:31.734Z,94219.20
2023-04-02T21:26:59.259Z,94219.20
2023-04-02T21:29:26.744Z,94220.40
2023-04-02T21:31:54.661Z,94214.40
2023-04-02T21:34:22.293Z,94217.60
2023-04-02T21:36:50.576Z,94217.00
2023-04-02T21:39:18.172Z,94214.60
2023-04-02T21:41:46.756Z,94214.40
2023-04-02T21:44:14.590Z,94220.00
2023-04-02T21:46:42.771Z,94213.40
2023-04-02T21:49:10.322Z,94215.80
2023-04-02T21:51:37.876Z,94218.80
2023-04-02T21:54:05.420Z,94224.20
2023-04-02T21:56:32.937Z,94223.00
2023-04-02T21:59:02.121Z,94224.00
2023-04-02T22:01:29.986Z,94226.00
2023-04-02T22:03:57.804Z,94227.20
2023-04-02T22:06:25.510Z,94228.80
2023-04-02T22:08:53.092Z,94227.60
2023-04-02T22:11:20.957Z,94225.60
2023-04-02T22:13:48.433Z,94225.40
2023-04-02T22:16:16.289Z,94229.00
2023-04-02T22:18:43.911Z,94230.00
2023-04-02T22:21:11.540Z,94226.80
2023-04-02T22:23:39.024Z,94233.40
2023-04-02T22:26:06.633Z,94235.80
2023-04-02T22:28:34.267Z,94239.00
2023-04-02T22:31:02.275Z,94241.00
2023-04-02T22:33:32.286Z,94239.20
2023-04-02T22:35:59.857Z,94239.80
2023-04-02T22:38:27.528Z,94243.80
2023-04-02T22:40:55.488Z,94244.20
2023-04-02T22:43:22.984Z,94242.80
2023-04-02T22:45:51.188Z,94242.20
2023-04-02T22:48:18.678Z,94240.20
2023-04-02T22:50:46.434Z,94243.00
2023-04-02T22:53:15.384Z,94244.60
2023-04-02T22:55:42.945Z,94242.40
2023-04-02T22:58:10.566Z,94243.80
2023-04-02T23:00:38.672Z,94242.00
2023-04-02T23:03:06.727Z,94245.00
2023-04-02T23:05:34.189Z,94240.20
2023-04-02T23:08:01.706Z,94248.60
2023-04-02T23:10:30.677Z,94247.80
2023-04-02T23:12:58.460Z,94246.60
2023-04-02T23:15:26.137Z,94256.20
2023-04-02T23:17:53.657Z,94255.40
2023-04-02T23:20:21.245Z,94253.80
2023-04-02T23:22:48.950Z,94254.00
2023-04-02T23:25:16.474Z,94254.00
2023-04-02T23:27:43.990Z,94256.80
2023-04-02T23:30:11.536Z,94255.60
2023-04-02T23:32:39.139Z,94259.60
2023-04-02T23:35:06.708Z,94260.00
2023-04-02T23:37:34.212Z,94263.20
2023-04-02T23:40:01.789Z,94262.40
2023-04-02T23:42:29.390Z,94261.60
2023-04-02T23:44:56.903Z,94262.40
2023-04-02T23:47:24.376Z,94259.20
2023-04-02T23:49:51.856Z,94261.00
2023-04-02T23:52:19.453Z,94258.00
2023-04-02T23:54:47.165Z,94256.00
2023-04-02T23:57:15.932Z,94254.80
2023-04-02T23:59:43.503Z,94255.80
